Time;durP1;ratioP1;P1;durP2;ratioP2;P2;SDS_P1;SDS_P2;PMS_P1;PMS_P2;Temp;Humidity;BMP_temperature;BMP_pressure;BME280_temperature;BME280_humidity;BME280_pressure;Samples;Min_cycle;Max_cycle;Signal;HPM_P1;HPM_P2
2023/06/30 00:02:13;;;;;;;;;;;;;;;;;;5052172;28;19958;-69
2023/06/30 00:04:39;;;;;;;;;;;;;;;;;;5053914;28;19962;-69
2023/06/30 00:07:05;;;;;;;;;;;;;;;;;;5053632;28;19955;-70
2023/06/30 00:09:31;;;;;;;;;;;;;;;;;;5053624;28;19951;-70
2023/06/30 00:11:57;;;;;;;;;;;;;;;;;;5052044;28;19982;-68
2023/06/30 00:14:23;;;;;;;;;;;;;;;;;;5053607;28;20329;-70
2023/06/30 00:16:49;;;;;;;;;;;;;;;;;;5054123;28;20038;-68
2023/06/30 00:19:15;;;;;;;;;;;;;;;;;;5053583;28;20329;-68
2023/06/30 00:21:41;;;;;;;;;;;;;;;;;;5054083;28;20049;-69
2023/06/30 00:24:07;;;;;;;;;;;;;;;;;;5053557;28;20331;-69
2023/06/30 00:26:33;;;;;;;;;;;;;;;;;;5053515;28;19953;-69
2023/06/30 00:29:01;;;;;;;;;;;;;;;;;;5053752;28;19962;-69
2023/06/30 00:31:27;;;;;;;;;;;;;;;;;;5053330;28;19975;-69
2023/06/30 00:33:53;;;;;;;;;;;;;;;;;;5053860;28;19954;-69
2023/06/30 00:36:19;;;;;;;;;;;;;;;;;;5053964;28;20398;-69
2023/06/30 00:38:45;;;;;;;;;;;;;;;;;;5053636;28;19990;-70
2023/06/30 00:41:10;;;;;;;;;;;;;;;;;;5054297;28;19953;-70
2023/06/30 00:43:38;;;;;;;;;;;;;;;;;;5057221;28;19989;-68
2023/06/30 00:46:04;;;;;;;;;;;;;;;;;;5057350;28;19953;-69
2023/06/30 00:48:30;;;;;;;;;;;;;;;;;;5057230;28;20498;-69
2023/06/30 00:50:56;;;;;;;;;;;;;;;;;;5057080;28;19982;-70
2023/06/30 00:53:22;;;;;;;;;;;;;;;;;;5057676;28;20452;-69
2023/06/30 00:55:50;;;;;;;;;;;;;;;;;;5057085;28;19955;-70
2023/06/30 00:58:15;;;;;;;;;;;;;;;;;;5057618;28;19954;-69
2023/06/30 01:00:41;;;;;;;;;;;;;;;;;;5057329;28;19954;-71
2023/06/30 01:03:07;;;;;;;;;;;;;;;;;;5056956;28;20330;-69
2023/06/30 01:05:33;;;;;;;;;;;;;;;;;;5057185;28;19954;-69
2023/06/30 01:07:59;;;;;;;;;;;;;;;;;;5056870;28;20311;-70
2023/06/30 01:10:25;;;;;;;;;;;;;;;;;;5056779;28;19974;-69
2023/06/30 01:12:51;;;;;;;;;;;;;;;;;;5056757;28;20063;-69
2023/06/30 01:15:17;;;;;;;;;;;;;;;;;;5056765;28;19953;-67
2023/06/30 01:17:43;;;;;;;;;;;;;;;;;;5056944;28;20054;-68
2023/06/30 01:20:11;;;;;;;;;;;;;;;;;;5056611;28;19957;-70
2023/06/30 01:22:39;;;;;;;;;;;;;;;;;;5056862;28;20411;-69
2023/06/30 01:25:05;;;;;;;;;;;;;;;;;;5056844;28;19955;-70
2023/06/30 01:27:31;;;;;;;;;;;;;;;;;;5057096;28;20009;-68
2023/06/30 01:29:58;;;;;;;;;;;;;;;;;;5056377;28;20456;-69
2023/06/30 01:32:24;;;;;;;;;;;;;;;;;;5055393;28;20070;-70
2023/06/30 01:34:50;;;;;;;;;;;;;;;;;;5056298;28;20445;-69
2023/06/30 01:37:16;;;;;;;;;;;;;;;;;;5056329;28;20008;-69
2023/06/30 01:39:42;;;;;;;;;;;;;;;;;;5056581;28;20313;-69
2023/06/30 01:42:08;;;;;;;;;;;;;;;;;;5054568;28;19957;-69
2023/06/30 01:44:34;;;;;;;;;;;;;;;;;;5056494;28;19956;-70
2023/06/30 01:47:00;;;;;;;;;;;;;;;;;;5056118;28;20043;-68
2023/06/30 01:49:26;;;;;;;;;;;;;;;;;;5056658;28;19954;-69
2023/06/30 01:51:52;;;;;;;;;;;;;;;;;;5055946;28;19960;-68
2023/06/30 01:54:18;;;;;;;;;;;;;;;;;;5054980;28;19953;-68
2023/06/30 01:56:44;;;;;;;;;;;;;;;;;;5056260;28;19998;-68
2023/06/30 01:59:09;;;;;;;;;;;;;;;;;;5055913;28;19958;-69
2023/06/30 02:01:35;;;;;;;;;;;;;;;;;;5056124;28;19983;-69
2023/06/30 02:04:01;;;;;;;;;;;;;;;;;;5056087;28;19961;-70
2023/06/30 02:06:27;;;;;;;;;;;;;;;;;;5055809;28;19997;-68
2023/06/30 02:08:53;;;;;;;;;;;;;;;;;;5056016;28;19986;-69
2023/06/30 02:11:19;;;;;;;;;;;;;;;;;;5055761;28;20007;-69
2023/06/30 02:13:45;;;;;;;;;;;;;;;;;;5055687;28;20338;-68
2023/06/30 02:16:11;;;;;;;;;;;;;;;;;;5055584;28;19953;-69
2023/06/30 02:18:39;;;;;;;;;;;;;;;;;;5055863;28;20020;-70
2023/06/30 02:21:05;;;;;;;;;;;;;;;;;;5055428;28;19976;-70
2023/06/30 02:23:31;;;;;;;;;;;;;;;;;;5055485;28;19955;-68
2023/06/30 02:25:57;;;;;;;;;;;;;;;;;;5055995;28;20477;-68
2023/06/30 02:28:23;;;;;;;;;;;;;;;;;;5055378;28;20424;-69
2023/06/30 02:30:49;;;;;;;;;;;;;;;;;;5055335;28;19953;-70
2023/06/30 02:33:15;;;;;;;;;;;;;;;;;;5056086;28;19955;-69
2023/06/30 02:35:41;;;;;;;;;;;;;;;;;;5053869;28;20346;-70
2023/06/30 02:38:07;;;;;;;;;;;;;;;;;;5056270;28;20011;-69
2023/06/30 02:40:33;;;;;;;;;;;;;;;;;;5055043;28;20073;-68
2023/06/30 02:42:59;;;;;;;;;;;;;;;;;;5055069;28;19995;-69
2023/06/30 02:45:25;;;;;;;;;;;;;;;;;;5055070;28;20001;-69
2023/06/30 02:47:51;;;;;;;;;;;;;;;;;;5055280;28;19954;-69
2023/06/30 02:50:17;;;;;;;;;;;;;;;;;;5055184;28;20403;-69
2023/06/30 02:52:44;;;;;;;;;;;;;;;;;;5055455;28;20049;-68
2023/06/30 02:55:09;;;;;;;;;;;;;;;;;;5054873;28;20014;-69
2023/06/30 02:57:35;;;;;;;;;;;;;;;;;;5055402;28;20465;-70
2023/06/30 03:00:01;;;;;;;;;;;;;;;;;;5054972;28;20036;-69
2023/06/30 03:02:28;;;;;;;;;;;;;;;;;;5053464;28;19959;-68
2023/06/30 03:04:55;;;;;;;;;;;;;;;;;;5054664;28;19955;-70
2023/06/30 03:07:21;;;;;;;;;;;;;;;;;;5054661;28;19954;-69
2023/06/30 03:09:47;;;;;;;;;;;;;;;;;;5054597;28;19955;-70
2023/06/30 03:12:13;;;;;;;;;;;;;;;;;;5055064;28;20414;-68
2023/06/30 03:14:39;;;;;;;;;;;;;;;;;;5054759;28;20041;-69
2023/06/30 03:17:05;;;;;;;;;;;;;;;;;;5054434;28;19955;-68
2023/06/30 03:19:31;;;;;;;;;;;;;;;;;;5054335;28;19995;-70
2023/06/30 03:21:57;;;;;;;;;;;;;;;;;;5054269;28;19981;-68
2023/06/30 03:24:23;;;;;;;;;;;;;;;;;;5054535;28;19954;-69
2023/06/30 03:26:49;;;;;;;;;;;;;;;;;;5052983;28;20020;-69
2023/06/30 03:29:15;;;;;;;;;;;;;;;;;;5054238;28;19958;-69
2023/06/30 03:31:41;;;;;;;;;;;;;;;;;;5054508;28;19953;-68
2023/06/30 03:34:07;;;;;;;;;;;;;;;;;;5054816;28;19969;-69
2023/06/30 03:36:33;;;;;;;;;;;;;;;;;;5054367;28;19955;-70
2023/06/30 03:38:59;;;;;;;;;;;;;;;;;;5054330;28;19959;-68
2023/06/30 03:41:26;;;;;;;;;;;;;;;;;;5053927;28;20020;-69
2023/06/30 03:43:52;;;;;;;;;;;;;;;;;;5053586;28;19990;-69
2023/06/30 03:46:18;;;;;;;;;;;;;;;;;;5054216;28;20041;-68
2023/06/30 03:48:44;;;;;;;;;;;;;;;;;;5053931;28;19955;-68
2023/06/30 03:51:10;;;;;;;;;;;;;;;;;;5054117;28;19958;-69
2023/06/30 03:53:36;;;;;;;;;;;;;;;;;;5053824;28;19957;-68
2023/06/30 03:56:02;;;;;;;;;;;;;;;;;;5054050;28;20045;-68
2023/06/30 03:58:28;;;;;;;;;;;;;;;;;;5054044;28;20007;-69
2023/06/30 04:00:54;;;;;;;;;;;;;;;;;;5054232;28;19982;-69
2023/06/30 04:03:20;;;;;;;;;;;;;;;;;;5053732;28;19955;-69
2023/06/30 04:05:46;;;;;;;;;;;;;;;;;;5054268;28;20451;-69
2023/06/30 04:08:12;;;;;;;;;;;;;;;;;;5053670;28;19953;-70
2023/06/30 04:10:39;;;;;;;;;;;;;;;;;;5053923;28;19954;-69
2023/06/30 04:13:05;;;;;;;;;;;;;;;;;;5053959;28;19950;-70
2023/06/30 04:15:31;;;;;;;;;;;;;;;;;;5053033;28;19950;-69
2023/06/30 04:17:57;;;;;;;;;;;;;;;;;;5054052;28;19953;-69
2023/06/30 04:20:23;;;;;;;;;;;;;;;;;;5053448;28;20021;-69
2023/06/30 04:22:48;;;;;;;;;;;;;;;;;;5054057;28;20449;-69
2023/06/30 04:25:14;;;;;;;;;;;;;;;;;;5053510;28;20416;-69
2023/06/30 04:27:40;;;;;;;;;;;;;;;;;;5053497;28;19955;-68
2023/06/30 04:30:07;;;;;;;;;;;;;;;;;;5053476;28;19955;-69
2023/06/30 04:32:32;;;;;;;;;;;;;;;;;;5054003;28;19954;-69
2023/06/30 04:34:58;;;;;;;;;;;;;;;;;;5054144;28;20037;-69
2023/06/30 04:37:24;;;;;;;;;;;;;;;;;;5053385;28;19954;-69
2023/06/30 04:39:50;;;;;;;;;;;;;;;;;;5053643;28;19954;-70
2023/06/30 04:42:16;;;;;;;;;;;;;;;;;;5053281;28;20488;-69
2023/06/30 04:44:42;;;;;;;;;;;;;;;;;;5053587;28;19965;-68
2023/06/30 04:47:08;;;;;;;;;;;;;;;;;;5053263;28;20363;-70
2023/06/30 04:49:35;;;;;;;;;;;;;;;;;;5052028;28;19978;-68
2023/06/30 04:52:01;;;;;;;;;;;;;;;;;;5052622;28;19958;-70
2023/06/30 04:54:27;;;;;;;;;;;;;;;;;;5053227;28;20003;-69
2023/06/30 04:56:53;;;;;;;;;;;;;;;;;;5053454;28;20020;-70
2023/06/30 04:59:19;;;;;;;;;;;;;;;;;;5053210;28;19959;-68
2023/06/30 05:01:45;;;;;;;;;;;;;;;;;;5053089;28;20010;-68
2023/06/30 05:04:10;;;;;;;;;;;;;;;;;;5053107;28;20395;-69
2023/06/30 05:06:36;;;;;;;;;;;;;;;;;;5053412;28;19951;-69
2023/06/30 05:09:02;;;;;;;;;;;;;;;;;;5053627;28;19955;-70
2023/06/30 05:11:28;;;;;;;;;;;;;;;;;;5053029;28;19962;-70
2023/06/30 05:13:54;;;;;;;;;;;;;;;;;;5053072;28;20415;-69
2023/06/30 05:16:20;;;;;;;;;;;;;;;;;;5053043;28;20080;-69
2023/06/30 05:18:46;;;;;;;;;;;;;;;;;;5053033;28;20000;-70
2023/06/30 05:21:12;;;;;;;;;;;;;;;;;;5053507;28;19974;-69
2023/06/30 05:23:38;;;;;;;;;;;;;;;;;;5052943;28;19954;-69
2023/06/30 05:26:04;;;;;;;;;;;;;;;;;;5053186;28;19979;-69
2023/06/30 05:28:29;;;;;;;;;;;;;;;;;;5055712;28;20077;-69
2023/06/30 05:30:55;;;;;;;;;;;;;;;;;;5056463;28;19955;-69
2023/06/30 05:33:21;;;;;;;;;;;;;;;;;;5056962;28;19998;-69
2023/06/30 05:35:47;;;;;;;;;;;;;;;;;;5056820;28;19970;-70
2023/06/30 05:38:13;;;;;;;;;;;;;;;;;;5056300;28;20007;-69
2023/06/30 05:40:40;;;;;;;;;;;;;;;;;;5056446;28;19971;-69
2023/06/30 05:43:06;;;;;;;;;;;;;;;;;;5054670;28;20027;-70
2023/06/30 05:45:32;;;;;;;;;;;;;;;;;;5056454;28;19962;-69
2023/06/30 05:47:58;;;;;;;;;;;;;;;;;;5056149;28;19958;-69
2023/06/30 05:50:24;;;;;;;;;;;;;;;;;;5056081;28;19953;-70
2023/06/30 05:52:50;;;;;;;;;;;;;;;;;;5056103;28;19958;-68
2023/06/30 05:55:15;;;;;;;;;;;;;;;;;;5056608;28;19960;-68
2023/06/30 05:57:41;;;;;;;;;;;;;;;;;;5056023;28;20421;-70
2023/06/30 06:00:07;;;;;;;;;;;;;;;;;;5056179;28;19959;-69
2023/06/30 06:02:33;;;;;;;;;;;;;;;;;;5055860;28;20002;-69
2023/06/30 06:04:59;;;;;;;;;;;;;;;;;;5055904;28;19957;-68
2023/06/30 06:07:25;;;;;;;;;;;;;;;;;;5056066;28;19961;-65
2023/06/30 06:09:51;;;;;;;;;;;;;;;;;;5056047;28;20417;-65
2023/06/30 06:12:17;;;;;;;;;;;;;;;;;;5055944;28;19969;-69
2023/06/30 06:14:43;;;;;;;;;;;;;;;;;;5055885;28;20307;-65
2023/06/30 06:17:09;;;;;;;;;;;;;;;;;;5055582;28;20050;-65
2023/06/30 06:19:35;;;;;;;;;;;;;;;;;;5055580;28;20041;-65
2023/06/30 06:22:01;;;;;;;;;;;;;;;;;;5055724;28;19973;-65
2023/06/30 06:24:27;;;;;;;;;;;;;;;;;;5055757;28;20420;-66
2023/06/30 06:26:52;;;;;;;;;;;;;;;;;;5055996;28;19980;-66
2023/06/30 06:29:22;;;;;;;;;;;;;;;;;;5055376;28;20318;-66
2023/06/30 06:31:48;;;;;;;;;;;;;;;;;;5055630;28;20309;-66
2023/06/30 06:34:14;;;;;;;;;;;;;;;;;;5055659;28;20438;-65
2023/06/30 06:36:40;;;;;;;;;;;;;;;;;;5055334;28;19959;-66
2023/06/30 06:39:06;;;;;;;;;;;;;;;;;;5054903;28;20089;-63
2023/06/30 06:41:32;;;;;;;;;;;;;;;;;;5055062;28;19973;-63
2023/06/30 06:43:58;;;;;;;;;;;;;;;;;;5054885;28;20034;-63
2023/06/30 06:46:24;;;;;;;;;;;;;;;;;;5055054;28;19964;-63
2023/06/30 06:48:50;;;;;;;;;;;;;;;;;;5055301;28;19959;-63
2023/06/30 06:51:16;;;;;;;;;;;;;;;;;;5054936;28;19978;-62
2023/06/30 06:53:42;;;;;;;;;;;;;;;;;;5054917;28;20004;-63
2023/06/30 06:56:07;;;;;;;;;;;;;;;;;;5054766;28;19961;-64
2023/06/30 06:58:35;;;;;;;;;;;;;;;;;;5055359;28;19954;-63
2023/06/30 07:01:03;;;;;;;;;;;;;;;;;;5054239;28;20214;-64
2023/06/30 07:03:29;;;;;;;;;;;;;;;;;;5054753;28;19956;-69
2023/06/30 07:05:55;;;;;;;;;;;;;;;;;;5054724;28;20046;-69
2023/06/30 07:08:21;;;;;;;;;;;;;;;;;;5054926;28;19954;-66
2023/06/30 07:10:47;;;;;;;;;;;;;;;;;;5054580;28;20010;-66
2023/06/30 07:13:13;;;;;;;;;;;;;;;;;;5054820;28;19954;-65
2023/06/30 07:15:39;;;;;;;;;;;;;;;;;;5055072;28;20404;-65
2023/06/30 07:18:05;;;;;;;;;;;;;;;;;;5054751;28;19955;-65
2023/06/30 07:20:30;;;;;;;;;;;;;;;;;;5054663;28;20358;-65
2023/06/30 07:22:56;;;;;;;;;;;;;;;;;;5054314;28;19986;-65
2023/06/30 07:25:22;;;;;;;;;;;;;;;;;;5054307;28;20340;-65
2023/06/30 07:27:49;;;;;;;;;;;;;;;;;;5054558;28;19962;-66
2023/06/30 07:30:15;;;;;;;;;;;;;;;;;;5054497;28;19997;-66
2023/06/30 07:32:41;;;;;;;;;;;;;;;;;;5054753;28;20009;-66
2023/06/30 07:35:06;;;;;;;;;;;;;;;;;;5054626;28;19978;-65
2023/06/30 07:37:32;;;;;;;;;;;;;;;;;;5054419;28;19957;-66
2023/06/30 07:39:58;;;;;;;;;;;;;;;;;;5054076;28;20040;-66
2023/06/30 07:42:24;;;;;;;;;;;;;;;;;;5053955;28;19986;-65
2023/06/30 07:44:50;;;;;;;;;;;;;;;;;;5054491;28;19957;-65
2023/06/30 07:47:16;;;;;;;;;;;;;;;;;;5053964;28;20005;-66
2023/06/30 07:49:42;;;;;;;;;;;;;;;;;;5054123;28;19954;-66
2023/06/30 07:52:08;;;;;;;;;;;;;;;;;;5053051;28;19959;-65
2023/06/30 07:54:34;;;;;;;;;;;;;;;;;;5054423;28;19953;-66
2023/06/30 07:56:59;;;;;;;;;;;;;;;;;;5053814;28;20008;-66
2023/06/30 07:59:25;;;;;;;;;;;;;;;;;;5054076;28;19953;-68
2023/06/30 08:01:51;;;;;;;;;;;;;;;;;;5054254;28;20469;-73
2023/06/30 08:04:18;;;;;;;;;;;;;;;;;;5053721;28;20021;-71
2023/06/30 08:06:44;;;;;;;;;;;;;;;;;;5054245;28;19962;-72
2023/06/30 08:09:10;;;;;;;;;;;;;;;;;;5053652;28;20045;-73
2023/06/30 08:11:36;;;;;;;;;;;;;;;;;;5054189;28;19955;-72
2023/06/30 08:14:04;;;;;;;;;;;;;;;;;;5053600;28;19954;-73
2023/06/30 08:16:29;;;;;;;;;;;;;;;;;;5053889;28;19958;-73
2023/06/30 08:18:55;;;;;;;;;;;;;;;;;;5053583;28;19960;-70
2023/06/30 08:21:21;;;;;;;;;;;;;;;;;;5053767;28;19974;-70
2023/06/30 08:23:47;;;;;;;;;;;;;;;;;;5053512;28;19954;-71
2023/06/30 08:26:13;;;;;;;;;;;;;;;;;;5053516;28;20012;-70
2023/06/30 08:28:39;;;;;;;;;;;;;;;;;;5053490;28;19988;-71
2023/06/30 08:31:05;;;;;;;;;;;;;;;;;;5052175;28;19959;-70
2023/06/30 08:33:31;;;;;;;;;;;;;;;;;;5054520;28;19954;-70
2023/06/30 08:35:57;;;;;;;;;;;;;;;;;;5053544;28;19985;-70
2023/06/30 08:38:23;;;;;;;;;;;;;;;;;;5053403;28;20341;-71
2023/06/30 08:40:48;;;;;;;;;;;;;;;;;;5053556;28;20060;-70
2023/06/30 08:43:14;;;;;;;;;;;;;;;;;;5053146;28;19994;-70
2023/06/30 08:45:40;;;;;;;;;;;;;;;;;;5053868;28;20362;-69
2023/06/30 08:48:06;;;;;;;;;;;;;;;;;;5053318;28;20049;-70
2023/06/30 08:50:33;;;;;;;;;;;;;;;;;;5053844;28;20310;-70
2023/06/30 08:52:59;;;;;;;;;;;;;;;;;;5053506;28;20045;-70
2023/06/30 08:55:25;;;;;;;;;;;;;;;;;;5053815;28;19997;-71
2023/06/30 08:57:51;;;;;;;;;;;;;;;;;;5053171;28;19959;-69
2023/06/30 09:00:16;;;;;;;;;;;;;;;;;;5053605;28;19961;-70
2023/06/30 09:02:42;;;;;;;;;;;;;;;;;;5054856;28;19962;-70
2023/06/30 09:05:08;;;;;;;;;;;;;;;;;;5056999;28;19953;-70
2023/06/30 09:07:34;;;;;;;;;;;;;;;;;;5057222;28;19969;-70
2023/06/30 09:10:00;;;;;;;;;;;;;;;;;;5056877;28;19958;-70
2023/06/30 09:12:26;;;;;;;;;;;;;;;;;;5057459;28;20043;-69
2023/06/30 09:14:52;;;;;;;;;;;;;;;;;;5056813;28;19954;-70
2023/06/30 09:17:18;;;;;;;;;;;;;;;;;;5057322;28;20380;-69
2023/06/30 09:19:44;;;;;;;;;;;;;;;;;;5056681;28;20381;-69
2023/06/30 09:22:10;;;;;;;;;;;;;;;;;;5057140;28;20378;-70
2023/06/30 09:24:35;;;;;;;;;;;;;;;;;;5056643;28;19955;-70
2023/06/30 09:27:01;;;;;;;;;;;;;;;;;;5057168;28;19955;-70
2023/06/30 09:29:27;;;;;;;;;;;;;;;;;;5056579;28;19959;-70
2023/06/30 09:31:53;;;;;;;;;;;;;;;;;;5057073;28;20335;-71
2023/06/30 09:34:19;;;;;;;;;;;;;;;;;;5057100;28;19972;-69
2023/06/30 09:36:45;;;;;;;;;;;;;;;;;;5056988;28;19980;-70
2023/06/30 09:39:11;;;;;;;;;;;;;;;;;;5056676;28;19959;-70
2023/06/30 09:41:37;;;;;;;;;;;;;;;;;;5056197;28;20433;-69
2023/06/30 09:44:04;;;;;;;;;;;;;;;;;;5055779;28;19987;-69
2023/06/30 09:46:30;;;;;;;;;;;;;;;;;;5056784;28;20001;-69
2023/06/30 09:48:56;;;;;;;;;;;;;;;;;;5056489;28;19956;-70
2023/06/30 09:51:21;;;;;;;;;;;;;;;;;;5056155;28;19961;-70
2023/06/30 09:53:47;;;;;;;;;;;;;;;;;;5056634;28;20037;-70
2023/06/30 09:56:13;;;;;;;;;;;;;;;;;;5056031;28;20041;-70
2023/06/30 09:58:39;;;;;;;;;;;;;;;;;;5056548;28;20302;-70
2023/06/30 10:01:05;;;;;;;;;;;;;;;;;;5055890;28;20031;-69
2023/06/30 10:03:31;;;;;;;;;;;;;;;;;;5056259;28;19959;-70
2023/06/30 10:05:57;;;;;;;;;;;;;;;;;;5055887;28;20417;-70
2023/06/30 10:08:23;;;;;;;;;;;;;;;;;;5055831;28;19956;-70
2023/06/30 10:10:49;;;;;;;;;;;;;;;;;;5056041;28;19954;-71
2023/06/30 10:13:14;;;;;;;;;;;;;;;;;;5055534;28;20438;-70
2023/06/30 10:15:40;;;;;;;;;;;;;;;;;;5055796;28;20061;-70
2023/06/30 10:18:06;;;;;;;;;;;;;;;;;;5055677;28;19962;-70
2023/06/30 10:20:32;;;;;;;;;;;;;;;;;;5055523;28;19974;-70
2023/06/30 10:23:00;;;;;;;;;;;;;;;;;;5055811;28;20038;-69
2023/06/30 10:25:26;;;;;;;;;;;;;;;;;;5055475;28;19954;-69
2023/06/30 10:27:52;;;;;;;;;;;;;;;;;;5055438;28;20043;-70
2023/06/30 10:30:18;;;;;;;;;;;;;;;;;;5055681;28;19963;-70
2023/06/30 10:32:44;;;;;;;;;;;;;;;;;;5055342;28;19953;-70
2023/06/30 10:35:13;;;;;;;;;;;;;;;;;;5056027;28;20350;-70
2023/06/30 10:37:39;;;;;;;;;;;;;;;;;;5054024;28;19956;-70
2023/06/30 10:40:05;;;;;;;;;;;;;;;;;;5055229;28;19954;-70
2023/06/30 10:42:31;;;;;;;;;;;;;;;;;;5054917;28;19987;-70
2023/06/30 10:44:57;;;;;;;;;;;;;;;;;;5055444;28;19953;-70
2023/06/30 10:47:23;;;;;;;;;;;;;;;;;;5055365;28;20000;-70
2023/06/30 10:49:53;;;;;;;;;;;;;;;;;;5055599;28;20037;-70
2023/06/30 10:52:19;;;;;;;;;;;;;;;;;;5053687;28;20455;-70
2023/06/30 10:54:45;;;;;;;;;;;;;;;;;;5055482;28;19954;-70
2023/06/30 10:57:11;;;;;;;;;;;;;;;;;;5054875;28;19957;-71
2023/06/30 10:59:37;;;;;;;;;;;;;;;;;;5055395;28;19955;-71
2023/06/30 11:02:03;;;;;;;;;;;;;;;;;;5055004;28;20506;-70
2023/06/30 11:04:29;;;;;;;;;;;;;;;;;;5054718;28;19998;-70
2023/06/30 11:06:55;;;;;;;;;;;;;;;;;;5055026;28;19961;-70
2023/06/30 11:09:21;;;;;;;;;;;;;;;;;;5054621;28;19955;-71
2023/06/30 11:11:47;;;;;;;;;;;;;;;;;;5054890;28;20006;-70
2023/06/30 11:14:12;;;;;;;;;;;;;;;;;;5054519;28;20431;-71
2023/06/30 11:16:38;;;;;;;;;;;;;;;;;;5055053;28;20293;-70
2023/06/30 11:19:04;;;;;;;;;;;;;;;;;;5054488;28;19963;-70
2023/06/30 11:21:30;;;;;;;;;;;;;;;;;;5054620;28;19977;-70
2023/06/30 11:23:56;;;;;;;;;;;;;;;;;;5054340;28;19954;-70
2023/06/30 11:26:22;;;;;;;;;;;;;;;;;;5054126;28;20326;-70
2023/06/30 11:28:48;;;;;;;;;;;;;;;;;;5054316;28;19956;-71
2023/06/30 11:31:14;;;;;;;;;;;;;;;;;;5054603;28;19960;-71
2023/06/30 11:33:40;;;;;;;;;;;;;;;;;;5054510;28;20053;-70
2023/06/30 11:36:06;;;;;;;;;;;;;;;;;;5055194;28;20005;-70
2023/06/30 11:38:32;;;;;;;;;;;;;;;;;;5054174;28;19954;-70
2023/06/30 11:41:00;;;;;;;;;;;;;;;;;;5054011;28;20035;-71
2023/06/30 11:43:26;;;;;;;;;;;;;;;;;;5053982;28;20048;-70
2023/06/30 11:45:51;;;;;;;;;;;;;;;;;;5054042;28;20405;-70
2023/06/30 11:48:17;;;;;;;;;;;;;;;;;;5054010;28;19955;-70
2023/06/30 11:50:43;;;;;;;;;;;;;;;;;;5054483;28;20498;-70
2023/06/30 11:53:09;;;;;;;;;;;;;;;;;;5053905;28;20004;-70
2023/06/30 11:55:35;;;;;;;;;;;;;;;;;;5054403;28;20414;-70
2023/06/30 11:58:01;;;;;;;;;;;;;;;;;;5054166;28;19962;-71
2023/06/30 12:00:28;;;;;;;;;;;;;;;;;;5053755;28;20474;-70
2023/06/30 12:02:54;;;;;;;;;;;;;;;;;;5052282;28;19960;-71
2023/06/30 12:05:23;;;;;;;;;;;;;;;;;;5053769;28;20403;-71
2023/06/30 12:07:49;;;;;;;;;;;;;;;;;;5053752;28;19963;-70
2023/06/30 12:10:15;;;;;;;;;;;;;;;;;;5053683;28;19954;-70
2023/06/30 12:12:41;;;;;;;;;;;;;;;;;;5053654;28;19954;-71
2023/06/30 12:15:10;;;;;;;;;;;;;;;;;;5053608;28;19954;-71
2023/06/30 12:17:36;;;;;;;;;;;;;;;;;;5053904;28;19959;-70
2023/06/30 12:20:03;;;;;;;;;;;;;;;;;;5053568;28;19960;-70
2023/06/30 12:22:30;;;;;;;;;;;;;;;;;;5052203;28;20389;-70
2023/06/30 12:24:56;;;;;;;;;;;;;;;;;;5054077;28;20004;-70
2023/06/30 12:27:21;;;;;;;;;;;;;;;;;;5053766;28;19956;-70
2023/06/30 12:29:48;;;;;;;;;;;;;;;;;;5053776;28;20407;-70
2023/06/30 12:32:14;;;;;;;;;;;;;;;;;;5053442;28;19962;-70
2023/06/30 12:34:40;;;;;;;;;;;;;;;;;;5053893;28;19970;-71
2023/06/30 12:37:05;;;;;;;;;;;;;;;;;;5054232;28;19999;-70
2023/06/30 12:39:32;;;;;;;;;;;;;;;;;;5057795;28;20004;-70
2023/06/30 12:41:58;;;;;;;;;;;;;;;;;;5057214;28;19977;-71
2023/06/30 12:44:24;;;;;;;;;;;;;;;;;;5057713;28;19965;-71
2023/06/30 12:46:49;;;;;;;;;;;;;;;;;;5057897;28;19961;-70
2023/06/30 12:49:15;;;;;;;;;;;;;;;;;;5057320;28;19958;-71
2023/06/30 12:51:43;;;;;;;;;;;;;;;;;;5057558;28;19959;-70
2023/06/30 12:54:08;;;;;;;;;;;;;;;;;;5055944;28;20041;-70
2023/06/30 12:56:34;;;;;;;;;;;;;;;;;;5057728;28;20005;-70
2023/06/30 12:59:02;;;;;;;;;;;;;;;;;;5057150;28;20010;-71
2023/06/30 13:01:28;;;;;;;;;;;;;;;;;;5057057;28;20024;-70
2023/06/30 13:03:53;;;;;;;;;;;;;;;;;;5057293;28;19954;-70
2023/06/30 13:06:19;;;;;;;;;;;;;;;;;;5057285;28;19955;-70
2023/06/30 13:08:45;;;;;;;;;;;;;;;;;;5056995;28;19955;-71
2023/06/30 13:11:11;;;;;;;;;;;;;;;;;;5056931;28;20061;-70
2023/06/30 13:13:37;;;;;;;;;;;;;;;;;;5056836;28;19954;-70
2023/06/30 13:16:03;;;;;;;;;;;;;;;;;;5056834;28;19977;-71
2023/06/30 13:18:29;;;;;;;;;;;;;;;;;;5056751;28;19954;-70
2023/06/30 13:20:55;;;;;;;;;;;;;;;;;;5056654;28;19982;-71
2023/06/30 13:23:21;;;;;;;;;;;;;;;;;;5056701;28;20002;-70
2023/06/30 13:25:47;;;;;;;;;;;;;;;;;;5057223;28;20302;-70
2023/06/30 13:28:13;;;;;;;;;;;;;;;;;;5056953;28;19955;-70
2023/06/30 13:30:41;;;;;;;;;;;;;;;;;;5057120;28;19961;-70
2023/06/30 13:33:07;;;;;;;;;;;;;;;;;;5056631;28;20479;-70
2023/06/30 13:35:33;;;;;;;;;;;;;;;;;;5056936;28;19974;-70
2023/06/30 13:37:59;;;;;;;;;;;;;;;;;;5056719;28;19962;-70
2023/06/30 13:40:25;;;;;;;;;;;;;;;;;;5056285;28;19962;-71
2023/06/30 13:42:51;;;;;;;;;;;;;;;;;;5056165;28;20028;-69
2023/06/30 13:45:17;;;;;;;;;;;;;;;;;;5056604;28;19955;-70
2023/06/30 13:47:45;;;;;;;;;;;;;;;;;;5056216;28;19958;-70
2023/06/30 13:50:11;;;;;;;;;;;;;;;;;;5056198;28;19999;-70
2023/06/30 13:52:37;;;;;;;;;;;;;;;;;;5056199;28;19953;-71
2023/06/30 13:55:03;;;;;;;;;;;;;;;;;;5056113;28;20378;-70
2023/06/30 13:57:29;;;;;;;;;;;;;;;;;;5056088;28;19990;-70
2023/06/30 13:59:55;;;;;;;;;;;;;;;;;;5056283;28;20009;-70
2023/06/30 14:02:21;;;;;;;;;;;;;;;;;;5056169;28;19982;-70
2023/06/30 14:04:47;;;;;;;;;;;;;;;;;;5056483;28;19999;-69
2023/06/30 14:07:13;;;;;;;;;;;;;;;;;;5055858;28;20414;-71
2023/06/30 14:09:39;;;;;;;;;;;;;;;;;;5056370;28;19962;-70
2023/06/30 14:12:05;;;;;;;;;;;;;;;;;;5055784;28;19954;-71
2023/06/30 14:14:31;;;;;;;;;;;;;;;;;;5055853;28;19954;-71
2023/06/30 14:16:57;;;;;;;;;;;;;;;;;;5055755;28;20429;-70
2023/06/30 14:19:23;;;;;;;;;;;;;;;;;;5055656;28;19993;-71
2023/06/30 14:21:49;;;;;;;;;;;;;;;;;;5056129;28;20432;-70
2023/06/30 14:24:14;;;;;;;;;;;;;;;;;;5055863;28;20001;-70
2023/06/30 14:26:40;;;;;;;;;;;;;;;;;;5055542;28;19994;-71
2023/06/30 14:29:06;;;;;;;;;;;;;;;;;;5056080;28;19955;-69
2023/06/30 14:31:32;;;;;;;;;;;;;;;;;;5055460;28;19962;-71
2023/06/30 14:33:58;;;;;;;;;;;;;;;;;;5055378;28;19981;-70
2023/06/30 14:36:26;;;;;;;;;;;;;;;;;;5056164;28;19959;-70
2023/06/30 14:38:52;;;;;;;;;;;;;;;;;;5055545;28;19961;-70
2023/06/30 14:41:18;;;;;;;;;;;;;;;;;;5055194;28;20024;-69
2023/06/30 14:43:44;;;;;;;;;;;;;;;;;;5055031;28;20065;-71
2023/06/30 14:46:10;;;;;;;;;;;;;;;;;;5055444;28;19965;-70
2023/06/30 14:48:36;;;;;;;;;;;;;;;;;;5055082;28;19958;-70
2023/06/30 14:51:02;;;;;;;;;;;;;;;;;;5055402;28;19962;-70
2023/06/30 14:53:28;;;;;;;;;;;;;;;;;;5055266;28;20009;-70
2023/06/30 14:55:54;;;;;;;;;;;;;;;;;;5054993;28;19954;-71
2023/06/30 14:58:20;;;;;;;;;;;;;;;;;;5054874;28;19953;-71
2023/06/30 15:00:45;;;;;;;;;;;;;;;;;;5054264;28;20013;-70
2023/06/30 15:03:11;;;;;;;;;;;;;;;;;;5054810;28;20403;-71
2023/06/30 15:05:37;;;;;;;;;;;;;;;;;;5054764;28;19981;-70
2023/06/30 15:08:05;;;;;;;;;;;;;;;;;;5054974;28;19955;-70
2023/06/30 15:10:31;;;;;;;;;;;;;;;;;;5054947;28;19955;-70
2023/06/30 15:12:57;;;;;;;;;;;;;;;;;;5055177;28;19978;-70
2023/06/30 15:15:23;;;;;;;;;;;;;;;;;;5054579;28;19954;-70
2023/06/30 15:17:49;;;;;;;;;;;;;;;;;;5054831;28;20048;-70
2023/06/30 15:20:15;;;;;;;;;;;;;;;;;;5054752;28;20470;-70
2023/06/30 15:22:41;;;;;;;;;;;;;;;;;;5054384;28;20097;-71
2023/06/30 15:25:07;;;;;;;;;;;;;;;;;;5054639;28;19954;-70
2023/06/30 15:27:34;;;;;;;;;;;;;;;;;;5054654;28;19954;-71
2023/06/30 15:30:05;;;;;;;;;;;;;;;;;;5054599;28;19954;-71
2023/06/30 15:32:31;;;;;;;;;;;;;;;;;;5054316;28;20469;-70
2023/06/30 15:34:57;;;;;;;;;;;;;;;;;;5054655;28;20015;-71
2023/06/30 15:37:23;;;;;;;;;;;;;;;;;;5054335;28;19953;-70
2023/06/30 15:39:49;;;;;;;;;;;;;;;;;;5054103;28;20415;-71
2023/06/30 15:42:15;;;;;;;;;;;;;;;;;;5053858;28;19987;-71
2023/06/30 15:44:41;;;;;;;;;;;;;;;;;;5054658;28;20303;-70
2023/06/30 15:47:07;;;;;;;;;;;;;;;;;;5054312;28;20049;-71
2023/06/30 15:49:32;;;;;;;;;;;;;;;;;;5054033;28;20372;-70
2023/06/30 15:51:58;;;;;;;;;;;;;;;;;;5053927;28;19956;-70
2023/06/30 15:54:24;;;;;;;;;;;;;;;;;;5053879;28;19990;-70
2023/06/30 15:56:50;;;;;;;;;;;;;;;;;;5054122;28;19989;-71
2023/06/30 15:59:16;;;;;;;;;;;;;;;;;;5053878;28;20317;-70
2023/06/30 16:01:42;;;;;;;;;;;;;;;;;;5053732;28;19990;-70
2023/06/30 16:04:08;;;;;;;;;;;;;;;;;;5053761;28;19955;-70
2023/06/30 16:06:34;;;;;;;;;;;;;;;;;;5053753;28;20002;-70
2023/06/30 16:09:00;;;;;;;;;;;;;;;;;;5054029;28;20064;-71
2023/06/30 16:11:25;;;;;;;;;;;;;;;;;;5053083;28;20331;-70
2023/06/30 16:13:51;;;;;;;;;;;;;;;;;;5053515;28;20050;-70
2023/06/30 16:16:17;;;;;;;;;;;;;;;;;;5053679;28;19998;-69
2023/06/30 16:18:44;;;;;;;;;;;;;;;;;;5053946;28;19955;-71
2023/06/30 16:21:10;;;;;;;;;;;;;;;;;;5053850;28;20328;-70
2023/06/30 16:23:36;;;;;;;;;;;;;;;;;;5053840;28;19955;-69
2023/06/30 16:26:02;;;;;;;;;;;;;;;;;;5053543;28;19955;-70
2023/06/30 16:28:28;;;;;;;;;;;;;;;;;;5053508;28;19955;-70
2023/06/30 16:30:54;;;;;;;;;;;;;;;;;;5053494;28;20330;-71
2023/06/30 16:33:19;;;;;;;;;;;;;;;;;;5052199;28;20017;-70
2023/06/30 16:35:45;;;;;;;;;;;;;;;;;;5054442;28;19977;-70
2023/06/30 16:38:11;;;;;;;;;;;;;;;;;;5053437;28;20048;-70